createdAt,value
2018-09-19T00:00:06.013Z,19.13
2018-09-19T00:02:34.493Z,19.12
2018-09-19T00:05:03.002Z,19.10
2018-09-19T00:07:31.523Z,19.08
2018-09-19T00:10:00.784Z,19.06
2018-09-19T00:12:29.306Z,19.02
2018-09-19T00:14:57.958Z,19.02
2018-09-19T00:17:26.488Z,18.99
2018-09-19T00:19:55.593Z,18.93
2018-09-19T00:22:24.157Z,18.83
2018-09-19T00:24:53.103Z,18.75
2018-09-19T00:27:21.645Z,18.62
2018-09-19T00:29:50.606Z,18.56
2018-09-19T00:32:19.105Z,18.49
2018-09-19T00:34:47.910Z,18.51
2018-09-19T00:37:16.577Z,18.47
2018-09-19T00:39:45.196Z,18.43
2018-09-19T00:42:13.967Z,18.33
2018-09-19T00:44:42.539Z,18.26
2018-09-19T00:47:11.403Z,18.22
2018-09-19T00:49:39.866Z,18.22
2018-09-19T00:52:08.391Z,18.19
2018-09-19T00:54:36.903Z,18.20
2018-09-19T00:57:05.773Z,18.09
2018-09-19T00:59:34.405Z,17.99
2018-09-19T01:02:03.215Z,17.96
2018-09-19T01:04:31.816Z,17.99
2018-09-19T01:07:00.409Z,17.90
2018-09-19T01:09:28.987Z,17.96
2018-09-19T01:11:57.469Z,18.04
2018-09-19T01:14:26.119Z,18.05
2018-09-19T01:16:54.626Z,18.04
2018-09-19T01:19:23.391Z,17.97
2018-09-19T01:21:52.005Z,17.91
2018-09-19T01:24:20.555Z,17.85
2018-09-19T01:26:49.049Z,17.64
2018-09-19T01:29:17.650Z,17.39
2018-09-19T01:31:46.303Z,17.25
2018-09-19T01:34:14.866Z,16.96
2018-09-19T01:36:43.664Z,16.82
2018-09-19T01:39:12.185Z,16.85
2018-09-19T01:41:40.691Z,16.73
2018-09-19T01:44:09.686Z,16.79
2018-09-19T01:46:38.261Z,16.79
2018-09-19T01:49:06.901Z,16.74
2018-09-19T01:51:35.582Z,16.68
2018-09-19T01:54:04.426Z,16.68
2018-09-19T01:56:33.078Z,16.78
2018-09-19T01:59:01.543Z,16.75
2018-09-19T02:01:30.070Z,16.74
2018-09-19T02:03:58.689Z,16.62
2018-09-19T02:06:27.257Z,16.55
2018-09-19T02:08:56.221Z,16.41
2018-09-19T02:11:24.791Z,16.46
2018-09-19T02:13:53.360Z,16.46
2018-09-19T02:16:22.001Z,16.43
2018-09-19T02:18:50.702Z,16.29
2018-09-19T02:21:19.197Z,16.21
2018-09-19T02:23:48.052Z,16.18
2018-09-19T02:26:16.669Z,16.11
2018-09-19T02:28:45.618Z,16.09
2018-09-19T02:31:14.126Z,16.08
2018-09-19T02:33:42.730Z,16.19
2018-09-19T02:36:11.315Z,16.16
2018-09-19T02:38:39.866Z,16.16
2018-09-19T02:41:08.485Z,16.20
2018-09-19T02:43:36.997Z,16.11
2018-09-19T02:46:05.805Z,16.01
2018-09-19T02:48:34.394Z,15.95
2018-09-19T02:51:02.929Z,15.95
2018-09-19T02:53:31.384Z,15.92
2018-09-19T02:55:59.853Z,15.91
2018-09-19T02:58:28.531Z,15.82
2018-09-19T03:00:57.102Z,15.71
2018-09-19T03:03:25.594Z,15.63
2018-09-19T03:05:54.258Z,15.52
2018-09-19T03:08:22.818Z,15.50
2018-09-19T03:10:51.330Z,15.35
2018-09-19T03:13:20.149Z,15.36
2018-09-19T03:15:48.650Z,15.33
2018-09-19T03:18:17.132Z,15.34
2018-09-19T03:20:45.823Z,15.30
2018-09-19T03:23:14.304Z,15.20
2018-09-19T03:25:43.212Z,15.16
2018-09-19T03:28:11.692Z,15.17
2018-09-19T03:30:40.141Z,15.13
2018-09-19T03:33:08.605Z,15.09
2018-09-19T03:35:37.115Z,15.08
2018-09-19T03:38:05.681Z,15.05
2018-09-19T03:40:34.573Z,15.16
2018-09-19T03:43:03.486Z,15.20
2018-09-19T03:45:32.299Z,15.19
2018-09-19T03:48:00.796Z,15.20
2018-09-19T03:50:29.429Z,15.25
2018-09-19T03:52:58.245Z,15.34
2018-09-19T03:55:26.749Z,15.32
2018-09-19T03:57:55.260Z,15.30
2018-09-19T04:00:24.173Z,15.29
2018-09-19T04:02:52.814Z,15.28
2018-09-19T04:05:21.450Z,15.28
2018-09-19T04:07:50.081Z,15.27
2018-09-19T04:10:18.606Z,15.34
2018-09-19T04:12:47.317Z,15.33
2018-09-19T04:15:15.890Z,15.35
2018-09-19T04:17:44.714Z,15.38
2018-09-19T04:20:13.164Z,15.40
2018-09-19T04:22:41.954Z,15.27
2018-09-19T04:25:10.751Z,15.35
2018-09-19T04:27:39.206Z,15.37
2018-09-19T04:30:08.006Z,15.36
2018-09-19T04:32:36.625Z,15.38
2018-09-19T04:35:05.290Z,15.37
2018-09-19T04:37:33.791Z,15.36
2018-09-19T04:40:02.303Z,15.35
2018-09-19T04:42:30.961Z,15.32
2018-09-19T04:44:59.567Z,15.37
2018-09-19T04:47:27.996Z,15.39
2018-09-19T04:49:56.475Z,15.42
2018-09-19T04:52:24.945Z,15.41
2018-09-19T04:54:53.396Z,15.44
2018-09-19T04:57:21.922Z,15.43
2018-09-19T04:59:50.417Z,15.40
2018-09-19T05:02:19.049Z,15.36
2018-09-19T05:04:47.537Z,15.36
2018-09-19T05:07:16.092Z,15.33
2018-09-19T05:09:44.702Z,15.28
2018-09-19T05:12:13.226Z,15.18
2018-09-19T05:14:41.845Z,15.09
2018-09-19T05:17:11.341Z,15.04
2018-09-19T05:19:39.848Z,14.98
2018-09-19T05:22:08.581Z,14.97
2018-09-19T05:24:37.440Z,14.99
2018-09-19T05:27:05.903Z,15.02
2018-09-19T05:29:34.553Z,15.02
2018-09-19T05:32:03.137Z,15.07
2018-09-19T05:34:31.667Z,15.10
2018-09-19T05:37:00.135Z,15.20
2018-09-19T05:39:28.678Z,15.25
2018-09-19T05:41:57.197Z,15.33
2018-09-19T05:44:25.686Z,15.39
2018-09-19T05:46:54.416Z,15.50
2018-09-19T05:49:23.186Z,15.54
2018-09-19T05:51:51.664Z,15.56
2018-09-19T05:54:20.222Z,15.48
2018-09-19T05:56:48.685Z,15.45
2018-09-19T05:59:17.160Z,15.36
2018-09-19T06:01:45.786Z,15.38
2018-09-19T06:04:14.401Z,15.38
2018-09-19T06:06:43.287Z,15.46
2018-09-19T06:09:12.271Z,15.50
2018-09-19T06:11:40.908Z,15.62
2018-09-19T06:14:09.711Z,15.66
2018-09-19T06:16:38.405Z,15.81
2018-09-19T06:19:07.052Z,15.91
2018-09-19T06:21:35.559Z,16.07
2018-09-19T06:24:04.181Z,16.19
2018-09-19T06:26:32.661Z,16.28
2018-09-19T06:29:01.237Z,16.45
2018-09-19T06:31:30.050Z,16.63
2018-09-19T06:33:58.550Z,16.76
2018-09-19T06:36:27.009Z,16.95
2018-09-19T06:38:56.037Z,17.11
2018-09-19T06:41:24.570Z,17.30
2018-09-19T06:43:53.238Z,17.52
2018-09-19T06:46:21.760Z,17.78
2018-09-19T06:48:50.267Z,18.01
2018-09-19T06:51:18.812Z,18.27
2018-09-19T06:53:47.423Z,18.46
2018-09-19T06:56:16.048Z,18.64
2018-09-19T06:58:44.737Z,18.86
2018-09-19T07:01:13.351Z,19.00
2018-09-19T07:03:41.921Z,19.17
2018-09-19T07:06:10.477Z,19.35
2018-09-19T07:08:39.087Z,19.46
2018-09-19T07:11:07.661Z,19.64
2018-09-19T07:13:36.383Z,19.77
2018-09-19T07:16:04.914Z,19.93
2018-09-19T07:18:33.411Z,20.15
2018-09-19T07:21:02.065Z,20.33
2018-09-19T07:23:30.681Z,20.47
2018-09-19T07:25:59.263Z,20.50
2018-09-19T07:28:27.809Z,20.67
2018-09-19T07:30:56.374Z,20.85
2018-09-19T07:33:25.011Z,21.14
2018-09-19T07:35:55.863Z,21.33
2018-09-19T07:38:24.541Z,21.50
2018-09-19T07:40:53.074Z,21.73
2018-09-19T07:43:21.741Z,21.82
2018-09-19T07:45:50.870Z,21.95
2018-09-19T07:48:19.468Z,22.07
2018-09-19T07:50:47.990Z,22.29
2018-09-19T07:53:16.615Z,22.46
2018-09-19T07:55:47.349Z,22.58
2018-09-19T07:58:15.901Z,22.67
2018-09-19T08:00:44.645Z,22.79
2018-09-19T08:03:13.139Z,22.94
2018-09-19T08:05:41.734Z,23.08
2018-09-19T08:08:10.324Z,23.18
2018-09-19T08:10:38.779Z,23.26
2018-09-19T08:13:07.186Z,23.36
2018-09-19T08:15:35.776Z,23.57
2018-09-19T08:18:04.515Z,23.72
2018-09-19T08:20:33.294Z,23.89
2018-09-19T08:23:02.042Z,23.93
2018-09-19T08:25:30.922Z,23.89
2018-09-19T08:28:00.053Z,23.92
2018-09-19T08:30:28.738Z,23.99
2018-09-19T08:32:57.366Z,24.15
2018-09-19T08:35:26.025Z,24.01
2018-09-19T08:37:54.829Z,23.92
2018-09-19T08:40:23.471Z,23.65
2018-09-19T08:42:52.247Z,23.64
2018-09-19T08:45:20.827Z,23.65
2018-09-19T08:47:49.498Z,23.71
2018-09-19T08:50:18.346Z,23.76
2018-09-19T08:52:47.026Z,23.94
2018-09-19T08:55:15.757Z,24.04
2018-09-19T08:57:44.422Z,24.17
2018-09-19T09:00:13.145Z,24.23
2018-09-19T09:02:41.970Z,24.34
2018-09-19T09:05:10.528Z,24.26
2018-09-19T09:07:39.102Z,24.36
2018-09-19T09:10:07.841Z,24.46
2018-09-19T09:12:36.520Z,24.64
2018-09-19T09:15:05.206Z,24.60
2018-09-19T09:17:35.843Z,24.63
2018-09-19T09:20:04.597Z,24.56
2018-09-19T09:22:33.337Z,24.80
2018-09-19T09:25:01.931Z,24.90
2018-09-19T09:27:30.645Z,25.09
2018-09-19T09:29:59.301Z,25.18
2018-09-19T09:32:27.900Z,25.38
2018-09-19T09:34:56.644Z,25.38
2018-09-19T09:37:25.206Z,25.67
2018-09-19T09:39:53.771Z,25.82
2018-09-19T09:42:22.316Z,25.87
2018-09-19T09:44:51.269Z,25.96
2018-09-19T09:47:19.945Z,26.18
2018-09-19T09:49:48.670Z,26.10
2018-09-19T09:52:17.333Z,26.19
2018-09-19T09:54:45.881Z,26.20
2018-09-19T09:57:14.550Z,26.33
2018-09-19T09:59:43.152Z,26.66
2018-09-19T10:02:11.806Z,26.97
2018-09-19T10:04:40.562Z,26.87
2018-09-19T10:07:09.383Z,27.07
2018-09-19T10:09:37.954Z,27.12
2018-09-19T10:12:06.641Z,27.17
2018-09-19T10:14:35.264Z,27.42
2018-09-19T10:17:03.834Z,27.50
2018-09-19T10:19:32.393Z,27.41
2018-09-19T10:22:01.245Z,27.42
2018-09-19T10:24:29.893Z,27.30
2018-09-19T10:26:58.513Z,27.12
2018-09-19T10:29:27.429Z,27.25
2018-09-19T10:31:56.136Z,27.55
2018-09-19T10:34:24.784Z,27.45
2018-09-19T10:36:53.438Z,27.51
2018-09-19T10:39:22.098Z,27.65
2018-09-19T10:41:50.865Z,27.88
2018-09-19T10:44:19.541Z,28.01
2018-09-19T10:46:48.332Z,27.77
2018-09-19T10:49:17.151Z,27.89
2018-09-19T10:51:46.921Z,27.54
2018-09-19T10:54:15.576Z,27.50
2018-09-19T10:56:45.346Z,27.36
2018-09-19T10:59:13.846Z,27.00
2018-09-19T11:01:42.635Z,26.88
2018-09-19T11:04:11.232Z,27.00
2018-09-19T11:06:39.820Z,27.08
2018-09-19T11:09:10.287Z,27.21
2018-09-19T11:11:39.410Z,27.33
2018-09-19T11:14:08.154Z,27.28
2018-09-19T11:16:36.738Z,27.62
2018-09-19T11:19:06.283Z,27.48
2018-09-19T11:21:34.984Z,27.74
2018-09-19T11:24:03.766Z,28.04
2018-09-19T11:26:32.472Z,28.40
2018-09-19T11:29:01.272Z,28.69
2018-09-19T11:31:29.894Z,28.68
2018-09-19T11:33:58.526Z,28.74
2018-09-19T11:36:27.152Z,28.97
2018-09-19T11:38:56.019Z,28.86
2018-09-19T11:41:24.635Z,28.59
2018-09-19T11:43:53.531Z,28.15
2018-09-19T11:46:22.152Z,27.92
2018-09-19T11:48:50.787Z,27.79
2018-09-19T11:51:19.567Z,28.16
2018-09-19T11:53:48.154Z,28.32
2018-09-19T11:56:16.843Z,28.05
2018-09-19T11:58:46.549Z,27.92
2018-09-19T12:01:15.759Z,28.08
2018-09-19T12:03:44.316Z,28.27
2018-09-19T12:06:12.929Z,28.22
2018-09-19T12:08:42.510Z,28.60
2018-09-19T12:11:11.084Z,28.45
2018-09-19T12:13:39.686Z,28.43
2018-09-19T12:16:08.232Z,28.37
2018-09-19T12:18:36.822Z,28.30
2018-09-19T12:21:05.925Z,28.16
2018-09-19T12:23:34.531Z,28.52
2018-09-19T12:26:03.898Z,28.28
2018-09-19T12:28:32.542Z,27.82
2018-09-19T12:31:01.150Z,27.85
2018-09-19T12:33:29.822Z,28.07
2018-09-19T12:35:58.331Z,28.20
2018-09-19T12:38:26.918Z,28.12
2018-09-19T12:40:55.514Z,28.26
2018-09-19T12:43:24.743Z,28.64
2018-09-19T12:45:53.341Z,28.55
2018-09-19T12:48:22.114Z,28.34
2018-09-19T12:50:50.895Z,28.39
2018-09-19T12:53:22.814Z,28.64
2018-09-19T12:55:53.045Z,29.00
2018-09-19T12:58:21.635Z,28.94
2018-09-19T13:00:50.462Z,29.31
2018-09-19T13:03:19.220Z,29.11
2018-09-19T13:05:47.904Z,29.09
2018-09-19T13:08:16.633Z,29.45
2018-09-19T13:10:45.162Z,29.60
2018-09-19T13:13:13.845Z,29.29
2018-09-19T13:15:42.737Z,29.47
2018-09-19T13:18:11.370Z,29.74
2018-09-19T13:20:39.905Z,30.06
2018-09-19T13:23:08.610Z,29.79
2018-09-19T13:25:37.110Z,30.20
2018-09-19T13:28:05.845Z,30.87
2018-09-19T13:30:34.387Z,30.85
2018-09-19T13:33:02.995Z,31.49
2018-09-19T13:35:31.534Z,31.94
2018-09-19T13:38:00.181Z,32.02
2018-09-19T13:40:28.958Z,31.91
2018-09-19T13:42:57.575Z,31.44
2018-09-19T13:45:26.176Z,31.12
2018-09-19T13:47:54.811Z,31.12
2018-09-19T13:50:40.356Z,31.37
2018-09-19T13:53:09.365Z,31.96
2018-09-19T13:55:38.038Z,32.51
2018-09-19T13:58:06.579Z,32.48
2018-09-19T14:00:35.338Z,32.84
2018-09-19T14:03:04.026Z,32.12
2018-09-19T14:05:32.746Z,32.12
2018-09-19T14:08:01.385Z,31.61
2018-09-19T14:10:29.943Z,31.27
2018-09-19T14:12:58.545Z,30.87
2018-09-19T14:15:27.206Z,31.13
2018-09-19T14:17:55.759Z,31.25
2018-09-19T14:20:24.547Z,31.56
2018-09-19T14:22:53.113Z,31.64
2018-09-19T14:25:21.662Z,32.29
2018-09-19T14:27:50.179Z,31.44
2018-09-19T14:30:18.937Z,31.75
2018-09-19T14:32:47.513Z,31.11
2018-09-19T14:35:17.251Z,31.42
2018-09-19T14:37:45.970Z,31.86
2018-09-19T14:40:14.559Z,32.26
2018-09-19T14:42:43.218Z,32.50
2018-09-19T14:45:11.943Z,32.71
2018-09-19T14:47:40.676Z,32.84
2018-09-19T14:50:09.486Z,32.68
2018-09-19T14:52:38.066Z,32.58
2018-09-19T14:55:06.613Z,31.95
2018-09-19T14:57:35.362Z,31.95
2018-09-19T15:00:04.087Z,31.93
2018-09-19T15:02:32.706Z,32.06
2018-09-19T15:05:01.370Z,32.54
2018-09-19T15:07:29.889Z,32.50
2018-09-19T15:09:58.536Z,32.25
2018-09-19T15:12:27.146Z,32.38
2018-09-19T15:14:55.706Z,32.24
2018-09-19T15:17:24.362Z,32.14
2018-09-19T15:19:52.989Z,32.49
2018-09-19T15:22:21.704Z,32.04
2018-09-19T15:24:50.396Z,32.00
2018-09-19T15:27:19.230Z,31.84
2018-09-19T15:29:47.916Z,31.60
2018-09-19T15:32:16.711Z,31.71
2018-09-19T15:34:45.294Z,31.89
2018-09-19T15:37:13.946Z,31.60
2018-09-19T15:39:42.513Z,31.56
2018-09-19T15:42:11.088Z,31.77
2018-09-19T15:44:39.671Z,31.66
2018-09-19T15:47:08.353Z,31.56
2018-09-19T15:49:36.863Z,31.68
2018-09-19T15:52:05.537Z,31.77
2018-09-19T15:54:34.103Z,31.71
2018-09-19T15:57:02.766Z,31.77
2018-09-19T15:59:31.532Z,31.89
2018-09-19T16:02:00.061Z,31.24
2018-09-19T16:04:28.610Z,31.12
2018-09-19T16:06:57.308Z,30.70
2018-09-19T16:09:26.019Z,30.51
2018-09-19T16:14:28.045Z,30.65
2018-09-19T16:16:56.626Z,30.83
2018-09-19T16:19:25.292Z,30.75
2018-09-19T16:21:53.802Z,29.98
2018-09-19T16:24:22.399Z,29.43
2018-09-19T16:26:51.066Z,29.64
2018-09-19T16:29:19.666Z,29.83
2018-09-19T16:31:48.326Z,29.94
2018-09-19T16:34:16.812Z,29.97
2018-09-19T16:36:45.526Z,29.25
2018-09-19T16:39:14.225Z,28.81
2018-09-19T16:41:43.305Z,28.57
2018-09-19T16:44:11.977Z,28.39
2018-09-19T16:46:41.189Z,28.13
2018-09-19T16:49:10.529Z,28.06
2018-09-19T16:51:39.145Z,27.96
2018-09-19T16:54:08.027Z,27.88
2018-09-19T16:56:36.594Z,27.85
2018-09-19T16:59:05.418Z,27.70
2018-09-19T17:01:33.972Z,27.61
2018-09-19T17:04:02.562Z,27.48
2018-09-19T17:06:31.255Z,27.33
2018-09-19T17:08:59.964Z,27.22
2018-09-19T17:11:28.576Z,27.12
2018-09-19T17:13:57.170Z,26.99
2018-09-19T17:16:25.657Z,26.88
2018-09-19T17:18:54.436Z,26.81
2018-09-19T17:21:23.129Z,26.69
2018-09-19T17:23:52.013Z,26.63
2018-09-19T17:26:20.708Z,26.54
2018-09-19T17:28:49.368Z,26.45
2018-09-19T17:31:17.913Z,26.37
2018-09-19T17:33:46.655Z,26.26
2018-09-19T17:36:15.308Z,26.16
2018-09-19T17:38:43.850Z,26.10
2018-09-19T17:41:12.483Z,26.01
2018-09-19T17:43:41.188Z,25.89
2018-09-19T17:46:09.749Z,25.80
2018-09-19T17:48:38.354Z,25.77
2018-09-19T17:51:07.115Z,25.73
2018-09-19T17:53:35.771Z,25.67
2018-09-19T17:56:04.366Z,25.61
2018-09-19T17:58:32.939Z,25.56
2018-09-19T18:01:01.537Z,25.46
2018-09-19T18:03:30.131Z,25.36
2018-09-19T18:05:58.693Z,25.26
2018-09-19T18:08:27.251Z,25.20
2018-09-19T18:10:55.794Z,25.19
2018-09-19T18:13:24.353Z,25.18
2018-09-19T18:15:52.935Z,25.16
2018-09-19T18:18:21.689Z,25.07
2018-09-19T18:20:50.459Z,25.00
2018-09-19T18:23:19.118Z,24.94
2018-09-19T18:25:47.742Z,24.87
2018-09-19T18:28:16.400Z,24.79
2018-09-19T18:30:44.942Z,24.71
2018-09-19T18:33:13.650Z,24.62
2018-09-19T18:35:42.390Z,24.58
2018-09-19T18:38:10.897Z,24.47
2018-09-19T18:40:39.555Z,24.40
2018-09-19T18:43:08.306Z,24.35
2018-09-19T18:45:36.862Z,24.29
2018-09-19T18:48:05.497Z,24.21
2018-09-19T18:50:34.156Z,24.12
2018-09-19T18:53:02.718Z,24.04
2018-09-19T18:55:31.273Z,24.01
2018-09-19T18:57:59.816Z,23.97
2018-09-19T19:00:28.361Z,23.88
2018-09-19T19:02:56.882Z,23.82
2018-09-19T19:05:25.434Z,23.83
2018-09-19T19:07:54.079Z,23.75
2018-09-19T19:10:23.559Z,23.66
2018-09-19T19:12:52.305Z,23.53
2018-09-19T19:15:20.930Z,23.44
2018-09-19T19:17:49.490Z,23.27
2018-09-19T19:20:18.166Z,23.07
2018-09-19T19:22:46.718Z,22.97
2018-09-19T19:25:15.693Z,22.92
2018-09-19T19:27:44.233Z,22.86
2018-09-19T19:30:12.738Z,22.75
2018-09-19T19:32:42.338Z,22.66
2018-09-19T19:35:11.936Z,22.60
2018-09-19T19:37:40.975Z,22.50
2018-09-19T19:40:09.702Z,22.38
2018-09-19T19:42:38.266Z,22.26
2018-09-19T19:45:07.022Z,22.16
2018-09-19T19:47:37.742Z,22.07
2018-09-19T19:50:16.306Z,22.06
2018-09-19T19:52:44.781Z,22.01
2018-09-19T19:55:15.619Z,21.98
2018-09-19T20:00:26.054Z,21.64
2018-09-19T20:02:54.469Z,21.61
2018-09-19T20:05:39.062Z,21.58
2018-09-19T20:08:08.822Z,21.65
2018-09-19T20:10:37.584Z,21.68
2018-09-19T20:13:06.778Z,21.56
2018-09-19T20:15:35.218Z,21.46
2018-09-19T20:18:03.932Z,21.42
2018-09-19T20:20:32.565Z,21.38
2018-09-19T20:23:01.196Z,21.26
2018-09-19T20:25:29.845Z,21.20
2018-09-19T20:28:02.651Z,21.18
2018-09-19T20:30:31.246Z,21.08
2018-09-19T20:32:59.797Z,20.93
2018-09-19T20:35:28.463Z,20.89
2018-09-19T20:37:57.047Z,20.79
2018-09-19T20:40:25.711Z,20.77
2018-09-19T20:43:07.474Z,20.73
2018-09-19T20:45:36.028Z,20.89
2018-09-19T20:48:04.974Z,20.84
2018-09-19T20:50:33.865Z,20.71
2018-09-19T20:53:02.372Z,20.53
2018-09-19T20:55:30.889Z,20.34
2018-09-19T20:57:59.658Z,20.25
2018-09-19T21:00:28.063Z,20.14
2018-09-19T21:02:56.618Z,19.95
2018-09-19T21:05:25.026Z,19.56
2018-09-19T21:07:53.472Z,19.34
2018-09-19T21:10:21.914Z,19.14
2018-09-19T21:12:50.349Z,19.14
2018-09-19T21:15:18.786Z,19.13
2018-09-19T21:17:47.247Z,19.14
2018-09-19T21:20:15.669Z,19.13
2018-09-19T21:22:45.270Z,19.02
2018-09-19T21:25:13.656Z,19.01
2018-09-19T21:27:42.136Z,18.99
2018-09-19T21:30:10.698Z,19.01
2018-09-19T21:32:39.156Z,18.91
2018-09-19T21:35:07.594Z,18.88
2018-09-19T21:37:36.075Z,18.90
2018-09-19T21:40:04.685Z,18.93
2018-09-19T21:42:33.139Z,18.91
2018-09-19T21:45:06.727Z,18.90
2018-09-19T21:47:35.149Z,18.91
2018-09-19T21:50:03.629Z,18.91
2018-09-19T21:52:32.085Z,18.90
2018-09-19T21:55:00.693Z,18.83
2018-09-19T21:57:29.101Z,18.74
2018-09-19T21:59:57.541Z,18.55
2018-09-19T22:02:25.957Z,18.70
2018-09-19T22:04:54.352Z,18.59
2018-09-19T22:07:22.801Z,18.56
2018-09-19T22:09:51.210Z,18.52
2018-09-19T22:12:19.646Z,18.51
2018-09-19T22:14:48.068Z,18.48
2018-09-19T22:17:16.531Z,18.45
2018-09-19T22:19:45.437Z,18.47
2018-09-19T22:22:13.902Z,18.60
2018-09-19T22:24:42.297Z,18.65
2018-09-19T22:27:10.706Z,18.55
2018-09-19T22:29:39.244Z,18.42
2018-09-19T22:32:07.693Z,18.37
2018-09-19T22:34:36.142Z,18.31
2018-09-19T22:37:04.597Z,18.16
2018-09-19T22:39:33.383Z,18.00
2018-09-19T22:42:01.894Z,18.00
2018-09-19T22:44:30.293Z,17.94
2018-09-19T22:46:58.705Z,17.88
2018-09-19T22:49:27.102Z,17.79
2018-09-19T22:51:55.528Z,17.89
2018-09-19T22:54:23.977Z,18.03
2018-09-19T22:56:52.365Z,17.98
2018-09-19T22:59:20.777Z,17.99
2018-09-19T23:01:49.231Z,17.89
2018-09-19T23:04:18.447Z,17.86
2018-09-19T23:06:46.793Z,17.83
2018-09-19T23:09:15.221Z,17.88
2018-09-19T23:11:43.730Z,17.84
2018-09-19T23:14:12.166Z,17.70
2018-09-19T23:16:40.663Z,17.64
2018-09-19T23:19:09.126Z,17.54
2018-09-19T23:21:37.556Z,17.51
2018-09-19T23:24:06.002Z,17.43
2018-09-19T23:26:34.386Z,17.30
2018-09-19T23:29:02.809Z,17.21
2018-09-19T23:31:31.290Z,17.18
2018-09-19T23:33:59.713Z,17.21
2018-09-19T23:36:28.136Z,17.21
2018-09-19T23:38:56.586Z,17.23
2018-09-19T23:41:24.989Z,17.28
2018-09-19T23:43:53.409Z,17.32
2018-09-19T23:46:21.809Z,17.26
2018-09-19T23:48:50.230Z,17.24
2018-09-19T23:51:18.617Z,17.13
2018-09-19T23:53:47.100Z,17.11
2018-09-19T23:56:16.349Z,17.07
2018-09-19T23:58:44.773Z,16.97
